Time;durP1;ratioP1;P1;durP2;ratioP2;P2;SDS_P1;SDS_P2;PMS_P1;PMS_P2;Temp;Humidity;BMP_temperature;BMP_pressure;BME280_temperature;BME280_humidity;BME280_pressure;Samples;Min_cycle;Max_cycle;Signal;HPM_P1;HPM_P2
2023/10/13 00:01:31;;;;;;;2.23;1.60;;;;;;;;;;5017736;28;20454;-79
2023/10/13 00:03:56;;;;;;;0.40;0.30;;;17.30;99.90;;;;;;5018814;28;20462;-78
2023/10/13 00:06:22;;;;;;;0.50;0.40;;;17.30;99.90;;;;;;5015001;28;20471;-78
2023/10/13 00:08:48;;;;;;;0.90;0.90;;;17.30;99.90;;;;;;5017803;28;20197;-81
2023/10/13 00:11:14;;;;;;;1.53;1.13;;;17.50;99.90;;;;;;5003718;28;20181;-78
2023/10/13 00:13:42;;;;;;;0.40;0.40;;;17.30;99.90;;;;;;5043029;28;20527;-76
2023/10/13 00:16:10;;;;;;;1.10;1.07;;;18.10;99.90;;;;;;5022286;28;20576;-80
2023/10/13 00:18:41;;;;;;;0.97;0.83;;;;;;;;;;5020913;28;20466;-79
2023/10/13 00:21:19;;;;;;;0.80;0.80;;;17.00;99.90;;;;;;5018867;28;20538;-76
2023/10/13 00:23:54;;;;;;;0.90;0.90;;;16.50;99.90;;;;;;5013079;28;20581;-79
2023/10/13 00:26:27;;;;;;;0.50;0.50;;;16.50;99.90;;;;;;5017522;28;20716;-79
2023/10/13 00:29:08;;;;;;;0.40;0.30;;;16.30;99.90;;;;;;5019893;28;20690;-78
2023/10/13 00:31:36;;;;;;;3.60;1.50;;;16.20;99.90;;;;;;5015981;28;20571;-80
2023/10/13 00:39:36;;;;;;;1.63;0.90;;;;;;;;;;5013740;28;20522;-81
2023/10/13 00:42:06;;;;;;;1.50;1.37;;;16.20;99.90;;;;;;5040198;28;20443;-81
2023/10/13 00:44:41;;;;;;;0.40;0.30;;;16.20;99.90;;;;;;5039934;28;21483;-77
2023/10/13 00:47:09;;;;;;;1.37;1.27;;;16.20;99.90;;;;;;5041979;28;20477;-78
2023/10/13 00:49:39;;;;;;;0.60;0.37;;;16.20;99.90;;;;;;5043248;28;20496;-81
2023/10/13 00:52:06;;;;;;;0.70;0.70;;;16.20;99.90;;;;;;5043104;28;20451;-78
2023/10/13 00:54:35;;;;;;;0.40;0.30;;;16.30;99.90;;;;;;5043761;28;22375;-82
2023/10/13 00:57:07;;;;;;;0.50;0.30;;;16.20;99.90;;;;;;5040320;28;20490;-86
2023/10/13 00:59:36;;;;;;;0.67;0.50;;;16.20;99.90;;;;;;5021503;28;20451;-83
2023/10/13 01:02:37;;;;;;;1.03;1.03;;;18.20;99.90;;;;;;5033164;28;21194;-79
2023/10/13 01:04:48;;;;;;;2.40;1.27;;;16.20;99.90;;;;;;5037341;28;20568;-79
2023/10/13 01:07:16;;;;;;;0.93;0.77;;;16.20;99.90;;;;;;5034216;28;20467;-82
2023/10/13 01:09:42;;;;;;;0.40;0.30;;;16.10;99.90;;;;;;5042743;28;20439;-78
2023/10/13 01:12:08;;;;;;;0.50;0.30;;;16.00;99.90;;;;;;5042927;28;20423;-78
2023/10/13 01:14:35;;;;;;;0.40;0.30;;;16.00;99.90;;;;;;5043524;28;20505;-82
2023/10/13 01:17:01;;;;;;;0.60;0.60;;;16.00;99.90;;;;;;5037135;28;20566;-82
2023/10/13 01:19:27;;;;;;;3.53;1.33;;;16.00;99.90;;;;;;5034799;28;20611;-83
2023/10/13 01:22:01;;;;;;;0.40;0.30;;;15.90;99.90;;;;;;5030208;28;20439;-82
2023/10/13 01:24:31;;;;;;;0.50;0.40;;;15.80;99.90;;;;;;5016982;28;20459;-84
2023/10/13 01:26:56;;;;;;;0.80;0.80;;;15.80;99.90;;;;;;5016962;28;20473;-76
2023/10/13 01:29:26;;;;;;;0.87;0.87;;;15.80;99.90;;;;;;5015651;28;20458;-82
2023/10/13 01:31:52;;;;;;;2.53;0.57;;;15.70;99.90;;;;;;5034224;28;20451;-81
2023/10/13 01:34:22;;;;;;;0.40;0.30;;;15.70;99.90;;;;;;5033629;28;20533;-83
2023/10/13 01:36:52;;;;;;;0.40;0.20;;;15.70;99.90;;;;;;5012525;28;20693;-78
2023/10/13 01:39:20;;;;;;;1.00;0.50;;;15.70;99.90;;;;;;5047638;28;20459;-78
2023/10/13 01:41:46;;;;;;;0.60;0.43;;;15.70;99.90;;;;;;5051611;28;20543;-83
2023/10/13 01:44:11;;;;;;;0.60;0.50;;;15.70;99.90;;;;;;5030356;28;20475;-85
2023/10/13 01:46:42;;;;;;;0.60;0.60;;;15.70;99.90;;;;;;5030139;28;20239;-79
2023/10/13 01:49:08;;;;;;;0.70;0.70;;;15.60;99.90;;;;;;5014699;28;20193;-77
2023/10/13 01:51:34;;;;;;;1.27;1.17;;;15.60;99.90;;;;;;5010349;28;22583;-81
2023/10/13 01:54:03;;;;;;;0.40;0.20;;;15.60;99.90;;;;;;5030201;28;20463;-80
2023/10/13 01:56:30;;;;;;;1.23;0.70;;;15.70;99.90;;;;;;5028926;28;20487;-81
2023/10/13 01:58:57;;;;;;;3.53;3.33;;;15.70;99.90;;;;;;5034152;28;20443;-80
2023/10/13 02:01:29;;;;;;;0.40;0.30;;;15.60;99.90;;;;;;5037455;28;20451;-81
2023/10/13 02:04:03;;;;;;;1.17;1.00;;;15.60;99.90;;;;;;5040800;28;20463;-84
2023/10/13 02:06:33;;;;;;;0.87;0.87;;;15.60;99.90;;;;;;5015575;28;20550;-82
2023/10/13 02:09:10;;;;;;;1.30;1.20;;;15.60;99.90;;;;;;5037491;28;20489;-81
2023/10/13 02:11:37;;;;;;;0.87;0.87;;;15.80;99.90;;;;;;5017825;28;20446;-81
2023/10/13 02:14:03;;;;;;;0.97;0.90;;;15.80;99.90;;;;;;5027528;28;21000;-75
2023/10/13 02:16:30;;;;;;;0.77;0.60;;;15.80;99.90;;;;;;5039926;28;20459;-85
2023/10/13 02:18:57;;;;;;;0.80;0.40;;;15.70;99.90;;;;;;5033684;28;20451;-80
2023/10/13 02:21:31;;;;;;;3.17;2.90;;;15.70;99.90;;;;;;5015201;28;20439;-77
2023/10/13 02:24:00;;;;;;;1.13;1.03;;;15.70;99.90;;;;;;5036208;28;20575;-81
2023/10/13 02:26:38;;;;;;;1.33;1.23;;;15.70;99.90;;;;;;5034755;28;20463;-80
2023/10/13 02:29:12;;;;;;;0.50;0.37;;;15.60;99.90;;;;;;5037514;28;20424;-79
2023/10/13 02:31:40;;;;;;;0.57;0.50;;;15.60;99.90;;;;;;5035299;28;20517;-81
2023/10/13 02:34:13;;;;;;;0.77;0.63;;;15.50;99.90;;;;;;5034482;28;20915;-80
2023/10/13 02:36:49;;;;;;;0.40;0.30;;;15.40;99.90;;;;;;5032782;28;20451;-80
2023/10/13 02:39:16;;;;;;;1.37;1.27;;;15.40;99.90;;;;;;5009995;28;20955;-78
2023/10/13 02:41:48;;;;;;;1.67;1.27;;;15.10;99.90;;;;;;5010987;28;20440;-84
2023/10/13 02:44:28;;;;;;;0.40;0.37;;;14.90;99.90;;;;;;5029520;28;20475;-81
2023/10/13 02:46:55;;;;;;;0.53;0.50;;;14.60;99.90;;;;;;5008427;28;21035;-78
2023/10/13 02:49:22;;;;;;;3.50;0.40;;;14.50;99.90;;;;;;5011860;28;20451;-82
2023/10/13 02:51:48;;;;;;;1.33;0.67;;;14.40;99.90;;;;;;5036219;28;20442;-77
2023/10/13 02:54:18;;;;;;;1.13;0.73;;;14.30;99.90;;;;;;5020552;28;20463;-81
2023/10/13 02:56:50;;;;;;;0.40;0.20;;;14.20;99.90;;;;;;5027879;28;20199;-80
2023/10/13 02:59:19;;;;;;;0.40;0.30;;;14.10;99.90;;;;;;5028854;28;20528;-78
2023/10/13 03:01:45;;;;;;;0.40;0.30;;;14.10;99.90;;;;;;5026308;28;20439;-78
2023/10/13 03:04:12;;;;;;;0.40;0.30;;;14.20;99.90;;;;;;5034232;28;20501;-78
2023/10/13 03:06:40;;;;;;;2.00;0.97;;;14.70;99.90;;;;;;5019548;28;20208;-82
2023/10/13 03:09:18;;;;;;;0.40;0.30;;;14.30;99.90;;;;;;5011288;28;20562;-80
2023/10/13 03:11:48;;;;;;;0.40;0.30;;;14.40;99.90;;;;;;5007795;28;20443;-81
2023/10/13 03:14:23;;;;;;;1.23;1.13;;;14.40;99.90;;;;;;5015886;28;20474;-79
2023/10/13 03:16:54;;;;;;;0.40;0.30;;;14.50;99.90;;;;;;5032633;28;20443;-78
2023/10/13 03:19:20;;;;;;;1.90;1.80;;;17.00;99.90;;;;;;5035896;28;20462;-80
2023/10/13 03:21:54;;;;;;;0.40;0.20;;;14.90;99.90;;;;;;5043990;28;20894;-78
2023/10/13 03:24:23;;;;;;;0.77;0.73;;;;;;;;;;5021789;28;20647;-82
2023/10/13 03:26:52;;;;;;;2.50;0.93;;;14.80;99.90;;;;;;5011235;28;20543;-79
2023/10/13 03:29:21;;;;;;;0.50;0.47;;;14.90;99.90;;;;;;5017317;28;20443;-81
2023/10/13 03:32:03;;;;;;;2.30;2.20;;;14.90;99.90;;;;;;5030740;28;21043;-79
2023/10/13 03:34:29;;;;;;;2.00;0.93;;;14.90;99.90;;;;;;5037159;28;20463;-81
2023/10/13 03:36:58;;;;;;;1.87;0.83;;;15.00;99.90;;;;;;5034573;28;20435;-82
2023/10/13 03:39:30;;;;;;;0.50;0.40;;;14.90;99.90;;;;;;5016880;28;20482;-80
2023/10/13 03:41:58;;;;;;;2.23;1.50;;;14.80;99.90;;;;;;5013624;28;20863;-82
2023/10/13 03:44:23;;;;;;;1.30;1.20;;;14.70;99.90;;;;;;5016325;28;20520;-84
2023/10/13 03:46:49;;;;;;;0.73;0.73;;;14.70;99.90;;;;;;5036333;28;21170;-78
2023/10/13 03:49:21;;;;;;;0.73;0.73;;;14.60;99.90;;;;;;5036035;28;20231;-77
2023/10/13 03:51:48;;;;;;;2.10;1.97;;;14.70;99.90;;;;;;5034636;28;20443;-78
2023/10/13 03:54:16;;;;;;;2.73;1.60;;;14.60;99.90;;;;;;5024296;28;21106;-78
2023/10/13 03:56:44;;;;;;;0.97;0.93;;;14.50;99.90;;;;;;5033612;28;20546;-83
2023/10/13 03:59:18;;;;;;;0.67;0.67;;;14.40;99.90;;;;;;5010056;28;20439;-81
2023/10/13 04:01:46;;;;;;;0.83;0.83;;;14.30;99.90;;;;;;5027527;28;21557;-79
2023/10/13 04:04:15;;;;;;;1.73;1.63;;;14.30;99.90;;;;;;5027969;28;22802;-81
2023/10/13 04:17:14;;;;;;;0.40;0.33;;;14.20;99.90;;;;;;5031418;28;20442;-79
2023/10/13 04:20:12;;;;;;;0.40;0.40;;;14.10;99.90;;;;;;5032118;28;20443;-78
2023/10/13 04:33:51;;;;;;;0.60;0.53;;;14.20;99.90;;;;;;5029287;28;20566;-81
2023/10/13 04:37:22;;;;;;;1.07;0.70;;;14.20;99.90;;;;;;5035814;28;20457;-82
2023/10/13 04:41:39;;;;;;;0.40;0.30;;;14.10;99.90;;;;;;5028168;28;20511;-79
2023/10/13 04:44:47;;;;;;;1.80;1.70;;;14.10;99.90;;;;;;5036271;28;20219;-77
2023/10/13 04:49:29;;;;;;;0.60;0.60;;;14.50;99.90;;;;;;5031222;28;20447;-81
2023/10/13 04:51:59;;;;;;;0.40;0.30;;;14.60;99.90;;;;;;5015410;28;20451;-84
2023/10/13 04:54:26;;;;;;;1.70;0.80;;;14.80;99.90;;;;;;5040106;28;20495;-79
2023/10/13 05:46:48;;;;;;;0.40;0.20;;;16.60;99.90;;;;;;5038684;28;20442;-78
2023/10/13 05:51:46;;;;;;;0.77;0.57;;;16.60;99.90;;;;;;5036011;28;20453;-80
2023/10/13 06:29:53;;;;;;;0.40;0.30;;;18.20;99.90;;;;;;5032119;28;20455;-80
2023/10/13 06:32:19;;;;;;;0.40;0.33;;;18.60;99.90;;;;;;5035783;28;20442;-84
2023/10/13 06:34:45;;;;;;;0.50;0.43;;;18.30;99.90;;;;;;5017179;28;20463;-86
2023/10/13 06:37:26;;;;;;;0.50;0.50;;;18.30;99.90;;;;;;5035146;28;21020;-85
2023/10/13 06:39:59;;;;;;;0.50;0.30;;;18.30;99.90;;;;;;5038385;28;20200;-82
2023/10/13 06:42:27;;;;;;;0.40;0.20;;;18.40;99.90;;;;;;5038709;28;20432;-84
2023/10/13 06:44:54;;;;;;;0.70;0.30;;;18.60;99.90;;;;;;5048671;28;20535;-85
2023/10/13 06:47:21;;;;;;;0.40;0.30;;;18.70;99.90;;;;;;5035407;28;21263;-84
2023/10/13 06:49:50;;;;;;;0.40;0.20;;;;;;;;;;5035209;28;20445;-84
2023/10/13 06:52:17;;;;;;;0.50;0.37;;;18.70;99.90;;;;;;5032083;28;20431;-84
2023/10/13 06:54:43;;;;;;;0.40;0.30;;;18.70;99.90;;;;;;5039055;28;20487;-85
2023/10/13 06:57:14;;;;;;;0.40;0.30;;;18.50;99.90;;;;;;5022686;28;20443;-84
2023/10/13 06:59:43;;;;;;;0.70;0.50;;;18.50;99.90;;;;;;5022569;28;20447;-85
2023/10/13 07:02:21;;;;;;;0.40;0.30;;;18.50;99.90;;;;;;5032818;28;20878;-83
2023/10/13 07:04:47;;;;;;;2.43;0.87;;;18.50;99.90;;;;;;5033012;28;21098;-84
2023/10/13 07:07:15;;;;;;;0.90;0.47;;;19.10;99.90;;;;;;5034281;28;20509;-84
2023/10/13 07:09:55;;;;;;;1.00;0.73;;;20.00;99.90;;;;;;5033088;28;20435;-84
2023/10/13 07:12:26;;;;;;;0.50;0.40;;;20.60;99.90;;;;;;5019200;28;20499;-84
2023/10/13 07:14:52;;;;;;;0.50;0.37;;;20.90;99.90;;;;;;5039574;28;20447;-84
2023/10/13 07:17:25;;;;;;;0.40;0.30;;;;;;;;;;5016929;28;20534;-85
2023/10/13 07:19:56;;;;;;;0.53;0.30;;;21.50;99.90;;;;;;5031328;28;20471;-84
2023/10/13 07:22:22;;;;;;;0.80;0.60;;;21.90;99.90;;;;;;5032807;28;20440;-83
2023/10/13 07:24:50;;;;;;;0.60;0.40;;;21.30;99.90;;;;;;5033895;28;20557;-84
2023/10/13 07:27:24;;;;;;;0.70;0.40;;;20.80;99.90;;;;;;5015105;28;20566;-85
2023/10/13 07:30:14;;;;;;;0.50;0.40;;;21.30;99.90;;;;;;5019180;28;20447;-83
2023/10/13 07:32:45;;;;;;;0.40;0.30;;;21.80;99.90;;;;;;5010444;28;20443;-85
2023/10/13 07:35:17;;;;;;;1.00;0.67;;;22.60;99.90;;;;;;5011723;28;20467;-84
2023/10/13 07:37:44;;;;;;;3.23;2.20;;;22.90;98.90;;;;;;5028884;28;20577;-83
2023/10/13 07:42:52;;;;;;;1.33;0.40;;;23.10;97.20;;;;;;5035785;28;20454;-84
2023/10/13 07:45:21;;;;;;;1.33;0.50;;;23.80;96.00;;;;;;5015677;28;20448;-84
2023/10/13 07:47:47;;;;;;;0.40;0.30;;;24.00;94.60;;;;;;5037168;28;20528;-86
2023/10/13 07:50:13;;;;;;;1.83;0.80;;;24.40;93.80;;;;;;5035142;28;20431;-83
2023/10/13 07:52:58;;;;;;;0.50;0.43;;;24.20;93.40;;;;;;5032248;28;20177;-84
2023/10/13 07:55:23;;;;;;;2.07;1.20;;;24.50;92.80;;;;;;5030082;28;20467;-85
2023/10/13 07:57:55;;;;;;;0.40;0.30;;;24.70;92.50;;;;;;5035025;28;20445;-85
2023/10/13 08:00:27;;;;;;;0.40;0.33;;;25.00;92.30;;;;;;5042093;28;20190;-84
2023/10/13 08:03:20;;;;;;;2.30;0.70;;;25.00;91.70;;;;;;5038445;28;20443;-82
2023/10/13 08:05:58;;;;;;;1.07;0.93;;;25.30;90.70;;;;;;5018752;28;20468;-82
2023/10/13 08:08:35;;;;;;;0.93;0.93;;;25.20;90.60;;;;;;5036083;28;20474;-83
2023/10/13 08:11:26;;;;;;;0.50;0.40;;;25.00;89.40;;;;;;5020222;28;20686;-84
2023/10/13 08:14:00;;;;;;;0.70;0.50;;;25.20;88.00;;;;;;5018682;28;20506;-83
2023/10/13 08:16:45;;;;;;;0.70;0.50;;;25.20;88.70;;;;;;5018199;28;20432;-83
2023/10/13 08:19:15;;;;;;;1.00;0.90;;;25.20;87.10;;;;;;5016878;28;20466;-83
2023/10/13 08:21:49;;;;;;;0.80;0.60;;;25.40;86.90;;;;;;5009916;28;20447;-83
2023/10/13 08:24:16;;;;;;;1.27;1.17;;;26.00;85.30;;;;;;5026181;28;20461;-84
2023/10/13 08:27:15;;;;;;;3.30;0.87;;;27.00;83.90;;;;;;5040333;28;20463;-84
2023/10/13 08:37:35;;;;;;;0.50;0.50;;;28.20;74.80;;;;;;5042167;28;20487;-84
2023/10/13 08:48:08;;;;;;;0.60;0.30;;;26.60;75.80;;;;;;5034994;28;20482;-83
2023/10/13 08:50:52;;;;;;;4.83;0.90;;;26.80;76.20;;;;;;5033007;28;20441;-84
2023/10/13 08:53:31;;;;;;;0.97;0.50;;;26.80;76.60;;;;;;5038049;28;21160;-84
2023/10/13 08:56:15;;;;;;;1.00;0.90;;;26.70;76.60;;;;;;5016716;28;20576;-84
2023/10/13 09:01:48;;;;;;;0.70;0.63;;;25.50;77.50;;;;;;5039179;28;20442;-85
2023/10/13 09:12:25;;;;;;;0.80;0.60;;;25.40;79.40;;;;;;5047901;28;20450;-85
2023/10/13 09:14:58;;;;;;;0.60;0.60;;;25.50;80.00;;;;;;5049352;28;20461;-85
2023/10/13 09:20:11;;;;;;;1.90;0.50;;;26.10;80.90;;;;;;5041753;28;21317;-87
2023/10/13 09:22:37;;;;;;;0.50;0.30;;;;;;;;;;5025449;28;20441;-85
2023/10/13 09:25:13;;;;;;;1.27;0.40;;;26.20;77.50;;;;;;5041695;28;20466;-85
2023/10/13 09:27:39;;;;;;;1.10;1.00;;;26.60;79.00;;;;;;5042311;28;20685;-86
2023/10/13 09:30:18;;;;;;;3.13;1.53;;;26.50;77.50;;;;;;5036521;28;20567;-85
2023/10/13 09:32:48;;;;;;;0.73;0.60;;;26.90;76.80;;;;;;5016285;28;20761;-86
2023/10/13 09:35:19;;;;;;;0.60;0.60;;;27.40;75.90;;;;;;5035687;28;20588;-88
2023/10/13 09:37:46;;;;;;;1.13;0.70;;;;;;;;;;5038514;28;20488;-86
2023/10/13 09:43:15;;;;;;;0.90;0.50;;;27.60;75.00;;;;;;5015895;28;20482;-85
2023/10/13 09:45:43;;;;;;;0.60;0.40;;;27.40;73.50;;;;;;5024776;28;20471;-85
2023/10/13 09:48:16;;;;;;;0.90;0.60;;;27.00;75.10;;;;;;5022355;28;21046;-86
2023/10/13 09:50:45;;;;;;;0.60;0.57;;;26.50;74.20;;;;;;5043408;28;20447;-86
2023/10/13 09:53:14;;;;;;;0.60;0.60;;;26.30;76.00;;;;;;5044068;28;20434;-87
2023/10/13 09:56:11;;;;;;;0.67;0.67;;;25.90;74.90;;;;;;5034639;28;21267;-85
2023/10/13 09:58:37;;;;;;;0.73;0.73;;;25.90;76.60;;;;;;5026791;28;20453;-85
2023/10/13 10:01:08;;;;;;;0.70;0.60;;;26.10;75.30;;;;;;5034752;28;20453;-86
2023/10/13 10:03:52;;;;;;;2.07;0.70;;;26.60;76.40;;;;;;5038093;28;20451;-85
2023/10/13 10:06:31;;;;;;;0.50;0.50;;;26.80;74.60;;;;;;5031592;28;20457;-85
2023/10/13 10:09:11;;;;;;;1.53;1.13;;;27.10;75.90;;;;;;5035785;28;20450;-83
2023/10/13 10:12:21;;;;;;;0.50;0.43;;;27.50;73.10;;;;;;5037132;28;20448;-85
2023/10/13 10:15:13;;;;;;;1.40;0.70;;;27.70;70.90;;;;;;5031833;28;20977;-87
2023/10/13 10:17:41;;;;;;;0.63;0.60;;;27.70;70.80;;;;;;5015533;28;20463;-86
2023/10/13 10:20:14;;;;;;;0.60;0.40;;;27.80;70.60;;;;;;5015160;28;20444;-83
2023/10/13 10:22:44;;;;;;;0.50;0.40;;;;;;;;;;5034192;28;20446;-85
2023/10/13 10:25:25;;;;;;;0.50;0.50;;;27.80;69.10;;;;;;5034792;28;20464;-83
2023/10/13 10:28:05;;;;;;;1.23;1.13;;;27.30;70.70;;;;;;5037658;28;20486;-83
2023/10/13 10:30:41;;;;;;;0.90;0.63;;;27.50;72.80;;;;;;5015972;28;20440;-87
2023/10/13 10:33:13;;;;;;;1.33;0.70;;;27.40;72.80;;;;;;5042080;28;20447;-86
2023/10/13 10:35:43;;;;;;;1.23;1.03;;;27.50;72.20;;;;;;5025741;28;20471;-81
2023/10/13 10:38:24;;;;;;;0.70;0.60;;;27.80;74.10;;;;;;5035066;28;20528;-85
2023/10/13 10:40:58;;;;;;;0.50;0.30;;;27.70;72.70;;;;;;5010940;28;20796;-85
2023/10/13 10:43:26;;;;;;;0.60;0.47;;;27.70;69.00;;;;;;5028721;28;20447;-86
2023/10/13 10:45:52;;;;;;;1.63;0.97;;;27.80;69.30;;;;;;5029075;28;21109;-82
2023/10/13 10:48:18;;;;;;;3.40;0.93;;;27.50;70.30;;;;;;5029542;28;20473;-84
2023/10/13 10:50:53;;;;;;;1.27;1.13;;;27.50;71.00;;;;;;5004903;28;20528;-86
2023/10/13 10:53:22;;;;;;;2.07;1.93;;;27.60;69.20;;;;;;5027599;28;20447;-87
2023/10/13 10:55:48;;;;;;;0.90;0.80;;;27.90;71.80;;;;;;5024989;28;20545;-84
2023/10/13 11:01:18;;;;;;;0.90;0.90;;;28.10;64.10;;;;;;5009949;28;21543;-83
2023/10/13 11:03:57;;;;;;;1.30;1.20;;;28.40;68.60;;;;;;5039062;28;20452;-84
2023/10/13 11:06:25;;;;;;;0.80;0.80;;;28.50;66.10;;;;;;5034774;28;21046;-84
2023/10/13 11:09:08;;;;;;;0.90;0.90;;;28.20;65.10;;;;;;5032602;28;20448;-83
2023/10/13 11:11:35;;;;;;;1.20;1.10;;;28.20;65.60;;;;;;5035617;28;20440;-84
2023/10/13 11:14:13;;;;;;;1.43;1.33;;;27.70;61.30;;;;;;5037622;28;21079;-84
2023/10/13 11:17:24;;;;;;;0.90;0.90;;;27.70;62.30;;;;;;5037482;28;20465;-83
2023/10/13 11:19:42;;;;;;;1.33;1.23;;;28.00;63.00;;;;;;5027003;28;20456;-85
2023/10/13 11:22:35;;;;;;;1.60;1.50;;;27.90;58.90;;;;;;5009597;28;20557;-84
2023/10/13 11:25:12;;;;;;;0.90;0.90;;;27.80;58.60;;;;;;5032214;28;20462;-83
2023/10/13 11:30:24;;;;;;;1.03;1.03;;;27.80;59.70;;;;;;5024984;28;20448;-83
2023/10/13 11:33:00;;;;;;;1.23;1.13;;;28.00;58.90;;;;;;5004185;28;20464;-85
2023/10/13 11:35:48;;;;;;;0.93;0.93;;;27.90;56.20;;;;;;5030347;28;21149;-84
2023/10/13 11:38:13;;;;;;;1.10;1.00;;;27.80;56.40;;;;;;5029227;28;20452;-86
2023/10/13 11:40:43;;;;;;;1.10;1.10;;;27.80;54.80;;;;;;5032766;28;20549;-85
2023/10/13 11:43:13;;;;;;;0.93;0.93;;;27.70;54.00;;;;;;5019440;28;20731;-83
2023/10/13 11:45:54;;;;;;;0.80;0.80;;;27.80;54.40;;;;;;5034361;28;20455;-85
2023/10/13 11:48:34;;;;;;;1.23;1.23;;;27.70;53.90;;;;;;5016693;28;20477;-86
2023/10/13 11:51:24;;;;;;;1.90;1.43;;;27.80;53.40;;;;;;5043630;28;20573;-86
2023/10/13 11:53:52;;;;;;;1.30;1.20;;;27.80;53.90;;;;;;5036887;28;20440;-84
2023/10/13 11:56:22;;;;;;;1.27;1.27;;;27.80;52.40;;;;;;5033213;28;20427;-85
2023/10/13 11:58:48;;;;;;;0.80;0.80;;;;;;;;;;5043035;28;20445;-84
2023/10/13 12:11:48;;;;;;;1.17;1.17;;;28.00;51.00;;;;;;5046001;28;20443;-84
2023/10/13 12:14:27;;;;;;;1.10;1.10;;;28.10;50.30;;;;;;5019854;28;22381;-85
2023/10/13 12:16:53;;;;;;;1.13;1.13;;;28.10;50.60;;;;;;5037910;28;20450;-83
2023/10/13 12:19:28;;;;;;;2.03;1.30;;;28.20;49.60;;;;;;5041083;28;20458;-84
2023/10/13 12:21:57;;;;;;;1.10;1.10;;;28.30;49.60;;;;;;5024459;28;20383;-85
2023/10/13 12:27:18;;;;;;;2.40;1.80;;;28.60;49.70;;;;;;5052969;28;20475;-83
2023/10/13 12:29:56;;;;;;;1.47;1.37;;;28.40;48.70;;;;;;5039557;28;21269;-84
2023/10/13 12:32:24;;;;;;;1.10;1.10;;;28.10;49.60;;;;;;5040040;28;20449;-84
2023/10/13 12:34:59;;;;;;;1.53;1.43;;;28.60;51.00;;;;;;5016790;28;20460;-83
2023/10/13 12:54:20;;;;;;;2.20;2.10;;;;;;;;;;5033806;28;20446;-84
2023/10/13 12:56:46;;;;;;;1.17;1.17;;;28.40;48.40;;;;;;5026310;28;20446;-84
2023/10/13 12:59:15;;;;;;;1.67;1.57;;;28.00;48.40;;;;;;5020484;28;20465;-84
2023/10/13 13:01:44;;;;;;;2.23;2.13;;;27.60;48.90;;;;;;5033336;28;20454;-84
2023/10/13 13:04:19;;;;;;;1.30;1.23;;;27.60;49.30;;;;;;5015472;28;20464;-84
2023/10/13 13:06:49;;;;;;;2.03;1.53;;;27.50;49.50;;;;;;5033921;28;20426;-82
2023/10/13 13:09:27;;;;;;;1.90;1.77;;;27.20;49.20;;;;;;5032485;28;20491;-84
2023/10/13 13:11:57;;;;;;;1.00;1.00;;;27.40;50.60;;;;;;5036618;28;20445;-84
2023/10/13 13:14:29;;;;;;;1.03;0.93;;;27.40;49.80;;;;;;5020874;28;20969;-83
2023/10/13 13:17:06;;;;;;;1.83;1.73;;;27.50;50.90;;;;;;5046840;28;20939;-86
2023/10/13 13:19:40;;;;;;;1.00;1.00;;;27.70;50.40;;;;;;5043700;28;20517;-86
2023/10/13 13:22:13;;;;;;;1.50;1.37;;;28.30;50.60;;;;;;5009797;28;20456;-84
2023/10/13 13:24:46;;;;;;;0.90;0.90;;;28.30;51.10;;;;;;5032405;28;20555;-82
2023/10/13 13:27:13;;;;;;;1.50;1.40;;;28.30;48.60;;;;;;5032890;28;20483;-82
2023/10/13 13:29:41;;;;;;;1.33;1.30;;;28.30;49.10;;;;;;5028551;28;20452;-84
2023/10/13 13:32:19;;;;;;;1.10;1.10;;;28.30;49.00;;;;;;5029969;28;20458;-84
2023/10/13 13:37:37;;;;;;;1.10;1.10;;;28.60;50.30;;;;;;5031619;28;20511;-85
2023/10/13 13:40:15;;;;;;;0.90;0.90;;;28.50;48.10;;;;;;5005261;28;20527;-84
2023/10/13 13:42:42;;;;;;;1.50;1.40;;;28.40;49.10;;;;;;5029859;28;20448;-83
2023/10/13 13:45:22;;;;;;;1.50;1.40;;;28.40;48.90;;;;;;5034989;28;20458;-85
2023/10/13 13:47:53;;;;;;;1.33;1.33;;;28.20;48.20;;;;;;5042058;28;20499;-83
2023/10/13 13:50:29;;;;;;;1.50;1.40;;;28.10;48.40;;;;;;5037556;28;20505;-83
2023/10/13 13:52:56;;;;;;;1.40;1.40;;;28.10;49.50;;;;;;5032669;28;20528;-85
2023/10/13 13:55:28;;;;;;;1.30;1.30;;;28.20;49.50;;;;;;5033105;28;20488;-85
2023/10/13 13:57:56;;;;;;;1.10;1.10;;;28.20;49.20;;;;;;5011485;28;20545;-84
2023/10/13 14:00:39;;;;;;;1.43;1.33;;;28.20;48.90;;;;;;5011948;28;21359;-84
2023/10/13 14:03:12;;;;;;;3.17;2.97;;;28.30;49.10;;;;;;5014680;28;20445;-84
2023/10/13 14:05:42;;;;;;;1.20;1.20;;;28.30;49.50;;;;;;5028645;28;20975;-86
2023/10/13 14:08:11;;;;;;;1.20;1.20;;;28.30;48.10;;;;;;5026810;28;20474;-85
2023/10/13 14:11:13;;;;;;;1.53;1.53;;;28.10;46.40;;;;;;5011872;28;20477;-83
2023/10/13 14:13:47;;;;;;;1.40;1.30;;;28.20;47.00;;;;;;5030160;28;20453;-83
2023/10/13 14:16:16;;;;;;;1.90;1.77;;;28.00;47.40;;;;;;5029828;28;20469;-82
2023/10/13 14:18:42;;;;;;;1.20;1.20;;;;;;;;;;5004125;28;20568;-85
2023/10/13 14:21:08;;;;;;;1.53;1.43;;;27.40;47.20;;;;;;5015163;28;21429;-78
2023/10/13 14:23:34;;;;;;;1.60;1.50;;;28.00;48.10;;;;;;5032482;28;20485;-80
2023/10/13 14:26:01;;;;;;;0.93;0.93;;;28.10;49.20;;;;;;5030818;28;20222;-79
2023/10/13 14:28:34;;;;;;;0.90;0.90;;;27.90;48.10;;;;;;5030943;28;20626;-83
2023/10/13 14:31:09;;;;;;;1.50;1.40;;;27.80;48.20;;;;;;5008775;28;20449;-79
2023/10/13 14:33:36;;;;;;;1.13;1.13;;;27.80;48.60;;;;;;5012680;28;20566;-79
2023/10/13 14:36:04;;;;;;;2.33;1.13;;;27.80;49.20;;;;;;5032691;28;20485;-77
2023/10/13 14:38:30;;;;;;;1.07;1.07;;;27.80;48.10;;;;;;5032692;28;20452;-78
2023/10/13 14:40:59;;;;;;;1.30;1.30;;;27.80;48.40;;;;;;5039515;28;20452;-76
2023/10/13 14:43:27;;;;;;;0.90;0.90;;;27.80;49.10;;;;;;5046902;28;20679;-80
2023/10/13 14:45:55;;;;;;;1.80;1.70;;;27.80;50.40;;;;;;5036240;28;22270;-80
2023/10/13 14:48:24;;;;;;;1.30;1.20;;;27.60;47.90;;;;;;5017491;28;20492;-77
2023/10/13 14:50:49;;;;;;;0.80;0.80;;;27.60;48.60;;;;;;5022747;28;20486;-76
2023/10/13 14:53:19;;;;;;;2.03;1.93;;;27.60;48.60;;;;;;5037281;28;20552;-80
2023/10/13 14:55:45;;;;;;;1.27;1.20;;;;;;;;;;5036638;28;20206;-81
2023/10/13 14:58:16;;;;;;;1.30;1.00;;;27.50;47.80;;;;;;5034545;28;20437;-79
2023/10/13 15:00:45;;;;;;;1.70;1.53;;;27.40;49.10;;;;;;5036943;28;20455;-80
2023/10/13 15:03:11;;;;;;;0.83;0.83;;;27.40;49.60;;;;;;5019776;28;20449;-80
2023/10/13 15:05:43;;;;;;;1.77;1.67;;;27.40;49.40;;;;;;5021226;28;20465;-83
2023/10/13 15:08:09;;;;;;;0.63;0.63;;;27.40;49.10;;;;;;5040402;28;21031;-81
2023/10/13 15:10:36;;;;;;;1.53;1.30;;;27.40;50.30;;;;;;5020097;28;20486;-78
2023/10/13 15:13:03;;;;;;;1.90;1.77;;;27.30;49.30;;;;;;5034721;28;20466;-80
2023/10/13 15:15:32;;;;;;;0.87;0.60;;;27.20;49.80;;;;;;5020955;28;20459;-81
2023/10/13 15:17:57;;;;;;;0.90;0.90;;;27.20;51.20;;;;;;5034898;28;20439;-79
2023/10/13 15:20:23;;;;;;;4.13;1.50;;;27.20;51.30;;;;;;5032960;28;20916;-81
2023/10/13 15:22:49;;;;;;;1.40;1.30;;;27.10;51.30;;;;;;5039689;28;20451;-80
2023/10/13 15:25:21;;;;;;;0.80;0.80;;;;;;;;;;5020685;28;20697;-77
2023/10/13 15:27:55;;;;;;;1.40;1.10;;;27.00;52.50;;;;;;5034495;28;20212;-81
2023/10/13 15:30:30;;;;;;;0.70;0.70;;;26.90;53.90;;;;;;5031684;28;20568;-79
2023/10/13 15:32:57;;;;;;;0.60;0.60;;;26.70;53.60;;;;;;5036005;28;20508;-76
2023/10/13 15:35:28;;;;;;;0.80;0.80;;;26.50;55.00;;;;;;5030358;28;20491;-81
2023/10/13 15:37:55;;;;;;;1.13;0.87;;;26.60;56.10;;;;;;5039605;28;20463;-80
2023/10/13 15:40:21;;;;;;;1.30;1.17;;;26.50;56.60;;;;;;5014170;28;20470;-82
2023/10/13 15:42:46;;;;;;;0.80;0.80;;;26.40;56.60;;;;;;5017852;28;20779;-78
2023/10/13 15:45:19;;;;;;;1.23;0.73;;;26.10;57.80;;;;;;5038026;28;22537;-75
2023/10/13 15:47:45;;;;;;;0.50;0.40;;;25.90;59.60;;;;;;5041171;28;20215;-83
2023/10/13 15:50:15;;;;;;;0.97;0.80;;;25.60;61.10;;;;;;5009122;28;20436;-79
2023/10/13 15:52:47;;;;;;;1.10;0.63;;;25.50;61.40;;;;;;5017047;28;20537;-80
2023/10/13 15:55:14;;;;;;;0.50;0.50;;;25.30;63.50;;;;;;5021167;28;20504;-78
2023/10/13 15:57:41;;;;;;;0.50;0.50;;;25.10;63.30;;;;;;5027613;28;21251;-79
2023/10/13 16:00:23;;;;;;;1.50;0.80;;;25.00;63.50;;;;;;5035786;28;20463;-81
2023/10/13 16:02:50;;;;;;;0.47;0.40;;;24.80;64.60;;;;;;5040920;28;20445;-82
2023/10/13 16:05:16;;;;;;;0.90;0.80;;;;;;;;;;5048460;28;21041;-77
2023/10/13 16:07:42;;;;;;;0.73;0.67;;;24.30;64.00;;;;;;5049376;28;20467;-84
2023/10/13 16:10:11;;;;;;;0.70;0.70;;;23.90;66.90;;;;;;5043373;28;20448;-83
2023/10/13 16:12:37;;;;;;;1.03;0.90;;;23.70;68.70;;;;;;5046344;28;20288;-82
2023/10/13 16:15:05;;;;;;;0.70;0.70;;;23.50;69.40;;;;;;5022366;28;20544;-80
2023/10/13 16:17:31;;;;;;;0.70;0.60;;;;;;;;;;5023404;28;21129;-84
2023/10/13 16:19:57;;;;;;;0.50;0.43;;;23.10;69.10;;;;;;5043554;28;20558;-81
2023/10/13 16:22:22;;;;;;;0.43;0.30;;;22.80;69.90;;;;;;5037610;28;20448;-80
2023/10/13 16:24:48;;;;;;;0.50;0.47;;;22.50;72.70;;;;;;5026042;28;20217;-80
2023/10/13 16:27:14;;;;;;;0.60;0.50;;;22.30;74.90;;;;;;5046305;28;20205;-81
2023/10/13 16:29:42;;;;;;;0.40;0.30;;;21.90;77.10;;;;;;5041212;28;20185;-79